Time;durP1;ratioP1;P1;durP2;ratioP2;P2;SDS_P1;SDS_P2;PMS_P1;PMS_P2;Temp;Humidity;BMP_temperature;BMP_pressure;BME280_temperature;BME280_humidity;BME280_pressure;Samples;Min_cycle;Max_cycle;Signal;HPM_P1;HPM_P2
2023/05/11 00:00:39;;;;;;;3.90;2.80;;;;;;;7.03;87.43;99841.73;109570;1253;74770;-64
2023/05/11 00:03:06;;;;;;;3.40;2.60;;;;;;;7.00;88.05;99843.63;109518;1253;59643;-64
2023/05/11 00:05:33;;;;;;;4.00;3.20;;;;;;;6.97;88.53;99844.40;109590;1253;62446;-64
2023/05/11 00:08:00;;;;;;;5.10;2.90;;;;;;;6.94;89.05;99842.76;109531;1253;74827;-63
2023/05/11 00:10:27;;;;;;;4.60;3.20;;;;;;;6.91;89.34;99842.64;109537;1253;70052;-65
2023/05/11 00:12:54;;;;;;;2.70;2.40;;;;;;;6.89;89.74;99841.23;109519;1253;72823;-65
2023/05/11 00:15:22;;;;;;;2.90;2.50;;;;;;;6.88;90.04;99841.20;109478;1254;60902;-65
2023/05/11 00:17:48;;;;;;;4.60;2.90;;;;;;;6.87;90.37;99842.84;109524;1253;60548;-64
2023/05/11 00:20:15;;;;;;;4.10;2.50;;;;;;;6.86;90.65;99843.31;109558;1253;75989;-64
2023/05/11 00:22:42;;;;;;;3.50;2.50;;;;;;;6.84;90.90;99845.70;109564;1253;68893;-64
2023/05/11 00:25:10;;;;;;;3.20;2.50;;;;;;;6.85;91.11;99847.95;109580;1253;74350;-65
2023/05/11 00:27:37;;;;;;;3.90;2.80;;;;;;;6.85;90.93;99847.77;109509;1253;58920;-64
2023/05/11 00:30:04;;;;;;;5.00;2.80;;;;;;;6.86;90.86;99850.02;109569;1251;58989;-65
2023/05/11 00:32:31;;;;;;;3.10;2.70;;;;;;;6.86;90.93;99846.81;109396;1254;76923;-64
2023/05/11 00:34:58;;;;;;;3.80;2.80;;;;;;;6.87;90.92;99843.90;109560;1253;68000;-64
2023/05/11 00:37:24;;;;;;;6.00;2.70;;;;;;;6.87;91.06;99843.17;109540;1252;73894;-64
2023/05/11 00:39:51;;;;;;;3.50;2.60;;;;;;;6.87;91.34;99840.58;109483;1253;58916;-64
2023/05/11 00:42:18;;;;;;;3.70;2.80;;;;;;;6.86;91.66;99843.81;109465;1253;62629;-65
2023/05/11 00:44:46;;;;;;;5.10;3.00;;;;;;;6.85;91.94;99838.80;109548;1253;76064;-64
2023/05/11 00:47:12;;;;;;;4.70;2.90;;;;;;;6.83;91.91;99840.66;109468;1254;67994;-64
2023/05/11 00:49:39;;;;;;;3.00;2.60;;;;;;;6.84;92.15;99840.64;109560;1253;74355;-64
2023/05/11 00:52:07;;;;;;;5.30;2.80;;;;;;;6.86;92.12;99840.67;109464;1253;59382;-64
2023/05/11 00:54:34;;;;;;;3.80;3.40;;;;;;;6.87;92.19;99840.70;109541;1252;60632;-64
2023/05/11 00:57:02;;;;;;;5.80;2.80;;;;;;;6.90;92.00;99841.72;109522;1253;72568;-65
2023/05/11 00:59:29;;;;;;;4.30;2.60;;;;;;;6.91;91.95;99842.66;109560;1253;70251;-64
2023/05/11 01:01:56;;;;;;;3.30;2.40;;;;;;;6.92;91.70;99841.30;109558;1254;74734;-64
2023/05/11 01:04:23;;;;;;;4.20;2.60;;;;;;;6.94;91.55;99842.58;109514;1253;61250;-64
2023/05/11 01:06:59;;;;;;;2.90;2.40;;;;;;;6.94;91.68;99844.45;109547;1253;60546;-64
2023/05/11 01:09:31;;;;;;;4.00;2.70;;;;;;;6.94;91.50;99848.02;109477;1254;74885;-65
2023/05/11 01:12:12;;;;;;;3.80;2.80;;;;;;;6.94;91.47;99847.80;109413;1253;68770;-65
2023/05/11 01:14:46;;;;;;;2.80;2.30;;;;;;;6.95;91.27;99847.60;109499;1252;75019;-64
2023/05/11 01:17:19;;;;;;;3.50;2.30;;;;;;;6.94;91.60;99848.71;109140;1254;60926;-64
2023/05/11 01:19:52;;;;;;;3.90;2.60;;;;;;;6.92;91.54;99848.74;109461;1253;62532;-65
2023/05/11 01:22:57;;;;;;;3.80;2.10;;;;;;;6.90;91.35;99852.75;109405;1252;73176;-64
2023/05/11 01:25:31;;;;;;;3.90;2.70;;;;;;;6.91;91.47;99850.10;109514;1253;68611;-65
2023/05/11 01:28:09;;;;;;;3.60;2.60;;;;;;;6.92;91.52;99850.29;109426;1254;71983;-64
2023/05/11 01:31:02;;;;;;;3.00;2.20;;;;;;;6.97;91.44;99849.36;109368;1253;60988;-64
2023/05/11 01:33:31;;;;;;;3.50;2.50;;;;;;;6.98;91.27;99851.38;109563;1253;58872;-64
2023/05/11 01:36:01;;;;;;;4.60;2.90;;;;;;;6.98;91.24;99846.63;109230;1254;77009;-64
2023/05/11 01:38:31;;;;;;;3.50;2.50;;;;;;;6.97;91.27;99845.45;109496;1254;69313;-64
2023/05/11 01:40:58;;;;;;;5.40;2.40;;;;;;;6.95;91.44;99844.59;109352;1252;73572;-63
2023/05/11 01:43:25;;;;;;;3.90;2.60;;;;;;;6.93;91.42;99846.38;109334;1254;61909;-65
2023/05/11 01:45:52;;;;;;;7.00;2.80;;;;;;;6.89;91.80;99841.76;109499;1253;59630;-64
2023/05/11 01:48:21;;;;;;;3.50;2.70;;;;;;;6.88;91.96;99839.59;109295;1252;75343;-63
2023/05/11 01:50:49;;;;;;;3.50;2.70;;;;;;;6.85;92.25;99843.51;109445;1252;70039;-62
2023/05/11 01:53:16;;;;;;;4.90;2.80;;;;;;;6.84;92.62;99840.25;109450;1253;73821;-64
2023/05/11 01:55:44;;;;;;;3.20;2.40;;;;;;;6.82;92.76;99834.84;109379;1253;59502;-64
2023/05/11 01:58:12;;;;;;;4.90;2.50;;;;;;;6.79;93.15;99838.98;109459;1252;61656;-63
2023/05/11 02:00:39;;;;;;;5.30;2.40;;;;;;;6.73;93.59;99839.31;109527;1253;75389;-65
2023/05/11 02:03:06;;;;;;;4.30;2.80;;;;;;;6.72;93.80;99837.28;109399;1253;70108;-65
2023/05/11 02:05:33;;;;;;;4.70;2.70;;;;;;;6.69;94.24;99839.48;109506;1252;74007;-64
2023/05/11 02:08:00;;;;;;;4.40;2.80;;;;;;;6.60;95.04;99843.70;109416;1253;61899;-65
2023/05/11 02:10:27;;;;;;;5.70;3.10;;;;;;;6.60;95.68;99849.70;109358;1254;61154;-61
2023/05/11 02:12:54;;;;;;;4.10;2.90;;;;;;;6.57;96.05;99851.73;109201;1253;74963;-64
2023/05/11 02:15:21;;;;;;;2.80;2.40;;;;;;;6.53;96.44;99852.47;109325;1252;69727;-65
2023/05/11 02:17:48;;;;;;;7.10;3.00;;;;;;;6.48;96.94;99851.63;109126;1254;74903;-65
2023/05/11 02:20:15;;;;;;;3.80;3.00;;;;;;;6.43;97.52;99852.58;109113;1253;61004;-65
2023/05/11 02:22:43;;;;;;;4.30;2.90;;;;;;;6.39;98.06;99852.30;109450;1253;60442;-64
2023/05/11 02:25:09;;;;;;;3.30;2.90;;;;;;;6.34;98.83;99856.23;109385;1252;75154;-63
2023/05/11 02:27:36;;;;;;;4.70;4.10;;;;;;;6.30;99.20;99855.35;109321;1253;66736;-63
2023/05/11 02:30:04;;;;;;;4.20;3.00;;;;;;;6.27;99.67;99855.65;109212;1252;73748;-63
2023/05/11 02:32:32;;;;;;;3.00;2.40;;;;;;;6.23;99.97;99857.22;109307;1253;61182;-63
2023/05/11 02:35:03;;;;;;;7.00;2.90;;;;;;;6.19;100.00;99858.79;109536;1253;58890;-65
2023/05/11 02:37:30;;;;;;;2.80;2.40;;;;;;;6.14;100.00;99860.61;109296;1253;73152;-64
2023/05/11 02:39:59;;;;;;;3.90;2.90;;;;;;;6.10;100.00;99860.13;109498;1252;68593;-65
2023/05/11 02:42:26;;;;;;;8.20;3.60;;;;;;;6.08;100.00;99858.02;109373;1253;74624;-64
2023/05/11 02:45:01;;;;;;;5.50;2.60;;;;;;;6.07;100.00;99863.17;109447;1253;60933;-62
2023/05/11 02:47:31;;;;;;;7.70;3.00;;;;;;;6.07;100.00;99861.94;109522;1252;60023;-64
2023/05/11 02:50:00;;;;;;;3.90;3.20;;;;;;;6.08;100.00;99859.77;109364;1253;77189;-65
2023/05/11 02:52:27;;;;;;;3.10;2.80;;;;;;;6.09;100.00;99860.51;109384;1253;69888;-61
2023/05/11 02:54:55;;;;;;;4.00;2.90;;;;;;;6.12;100.00;99864.99;109368;1253;74947;-62
2023/05/11 02:57:22;;;;;;;4.00;3.00;;;;;;;6.16;100.00;99864.64;109297;1253;58969;-63
2023/05/11 02:59:49;;;;;;;3.70;3.00;;;;;;;6.20;100.00;99868.00;109517;1253;60522;-65
2023/05/11 03:02:17;;;;;;;3.20;2.90;;;;;;;6.24;100.00;99865.56;109325;1254;74893;-62
2023/05/11 03:04:44;;;;;;;6.70;2.90;;;;;;;6.29;100.00;99867.59;109354;1253;68094;-63
2023/05/11 03:07:11;;;;;;;5.70;2.70;;;;;;;6.36;100.00;99872.24;109447;1254;71747;-64
2023/05/11 03:09:38;;;;;;;3.00;2.70;;;;;;;6.45;100.00;99876.10;109541;1253;60612;-64
2023/05/11 03:12:05;;;;;;;3.30;2.80;;;;;;;6.56;100.00;99874.20;109577;1252;60136;-64
2023/05/11 03:14:33;;;;;;;5.60;3.20;;;;;;;6.68;100.00;99874.88;109345;1253;73480;-64
2023/05/11 03:16:59;;;;;;;3.20;2.70;;;;;;;6.80;100.00;99876.23;109519;1252;70114;-63
2023/05/11 03:19:27;;;;;;;4.50;3.30;;;;;;;6.93;99.93;99873.00;109428;1252;74827;-62
2023/05/11 03:21:55;;;;;;;5.10;3.10;;;;;;;7.09;99.38;99875.23;109335;1256;60297;-65
2023/05/11 03:24:23;;;;;;;4.20;2.50;;;;;;;7.26;98.97;99875.42;109490;1252;62135;-64
2023/05/11 03:26:51;;;;;;;5.10;3.10;;;;;;;7.44;98.07;99873.58;109593;1253;76616;-63
2023/05/11 03:29:18;;;;;;;4.30;3.10;;;;;;;7.56;97.59;99876.52;109377;1254;68725;-64
2023/05/11 03:31:45;;;;;;;4.00;3.00;;;;;;;7.75;96.70;99877.77;109594;1251;71962;-62
2023/05/11 03:34:14;;;;;;;3.30;2.80;;;;;;;7.95;95.40;99879.84;109374;1253;59744;-65
2023/05/11 03:36:42;;;;;;;4.50;3.00;;;;;;;8.17;93.98;99878.29;109438;1252;60497;-64
2023/05/11 03:39:08;;;;;;;4.50;2.90;;;;;;;8.37;92.53;99879.02;109407;1252;76551;-63
2023/05/11 03:41:35;;;;;;;3.30;2.90;;;;;;;8.58;91.36;99883.34;109274;1252;67954;-64
2023/05/11 03:44:02;;;;;;;3.20;2.70;;;;;;;8.87;90.42;99886.05;109313;1253;74741;-62
2023/05/11 03:46:29;;;;;;;3.00;2.30;;;;;;;9.14;88.89;99885.63;109139;1253;61337;-63
2023/05/11 03:48:56;;;;;;;2.90;2.50;;;;;;;9.38;87.29;99886.03;109297;1253;62688;-63
2023/05/11 03:51:24;;;;;;;3.70;3.10;;;;;;;9.61;85.68;99882.14;109193;1253;74559;-62
2023/05/11 03:53:50;;;;;;;5.20;2.90;;;;;;;9.80;84.48;99887.27;109448;1252;69934;-63
2023/05/11 03:56:20;;;;;;;4.30;3.10;;;;;;;10.02;83.28;99888.34;109507;1252;74703;-65
2023/05/11 03:58:47;;;;;;;3.80;3.10;;;;;;;10.26;82.09;99884.84;109473;1253;61515;-65
2023/05/11 04:01:14;;;;;;;6.60;3.30;;;;;;;10.52;80.52;99891.69;109511;1252;61185;-64
2023/05/11 04:03:48;;;;;;;4.20;3.30;;;;;;;10.79;78.94;99889.72;109404;1254;76054;-64
2023/05/11 04:06:16;;;;;;;5.70;3.40;;;;;;;11.14;76.84;99885.58;109590;1252;70981;-65
2023/05/11 04:08:43;;;;;;;4.40;3.70;;;;;;;11.38;75.61;99889.71;109283;1253;75039;-64
2023/05/11 04:11:10;;;;;;;5.40;3.70;;;;;;;11.66;73.81;99888.09;109420;1252;59183;-64
2023/05/11 04:13:37;;;;;;;5.40;3.70;;;;;;;11.92;72.16;99885.88;109492;1254;62719;-64
2023/05/11 04:16:04;;;;;;;5.30;3.70;;;;;;;12.23;70.73;99891.15;109489;1253;73518;-64
2023/05/11 04:18:31;;;;;;;5.00;3.40;;;;;;;12.54;69.11;99892.26;109605;1252;69969;-65
2023/05/11 04:20:58;;;;;;;5.80;3.10;;;;;;;12.89;67.30;99900.00;109480;1252;74733;-64
2023/05/11 04:23:25;;;;;;;6.70;4.20;;;;;;;13.24;65.50;99898.23;109473;1252;62456;-65
2023/05/11 04:25:53;;;;;;;4.60;3.70;;;;;;;13.58;63.45;99898.35;109465;1253;61333;-63
2023/05/11 04:28:22;;;;;;;5.10;3.90;;;;;;;13.90;61.59;99894.16;109581;1252;76465;-66
2023/05/11 04:30:54;;;;;;;5.60;3.80;;;;;;;14.13;60.41;99895.84;109602;1253;68702;-64
2023/05/11 04:33:21;;;;;;;4.30;3.80;;;;;;;14.44;59.10;99895.65;109505;1253;73291;-64
2023/05/11 04:35:50;;;;;;;6.60;4.10;;;;;;;14.79;57.39;99894.59;109438;1253;61278;-68
2023/05/11 04:38:17;;;;;;;5.80;3.20;;;;;;;15.10;56.03;99896.27;109386;1253;61095;-65
2023/05/11 04:40:44;;;;;;;7.50;3.40;;;;;;;15.42;54.46;99891.08;109406;1252;76848;-63
2023/05/11 04:43:11;;;;;;;5.00;3.70;;;;;;;15.69;53.67;99891.48;109568;1252;70126;-69
2023/05/11 04:45:38;;;;;;;5.10;3.80;;;;;;;15.99;52.82;99889.09;109454;1252;74616;-68
2023/05/11 04:48:05;;;;;;;5.80;3.40;;;;;;;16.35;51.33;99891.45;109308;1253;61349;-69
2023/05/11 04:50:32;;;;;;;4.80;3.20;;;;;;;16.69;49.71;99888.66;109348;1252;63038;-64
2023/05/11 04:52:59;;;;;;;6.30;3.40;;;;;;;17.05;48.50;99891.04;109389;1252;73922;-67
2023/05/11 04:55:26;;;;;;;3.40;2.50;;;;;;;17.36;46.74;99891.73;109499;1252;70318;-63
2023/05/11 04:57:53;;;;;;;7.70;2.60;;;;;;;17.62;44.68;99897.73;109401;1254;74651;-68
2023/05/11 05:00:20;;;;;;;4.80;2.80;;;;;;;17.86;43.45;99899.77;109567;1251;62522;-65
2023/05/11 05:02:49;;;;;;;3.70;2.50;;;;;;;18.00;41.67;99893.59;109546;1252;61094;-69
2023/05/11 05:05:16;;;;;;;3.40;2.80;;;;;;;18.09;40.77;99893.10;109469;1253;76944;-64
2023/05/11 05:07:43;;;;;;;6.80;2.70;;;;;;;18.25;40.48;99893.70;109412;1253;68904;-65
2023/05/11 05:10:11;;;;;;;9.40;2.70;;;;;;;18.51;40.02;99890.96;109457;1252;72094;-63
2023/05/11 05:12:38;;;;;;;2.50;2.30;;;;;;;18.76;39.36;99894.89;109242;1253;61095;-64
2023/05/11 05:15:06;;;;;;;7.10;2.40;;;;;;;19.12;39.09;99896.42;109203;1254;62495;-62
2023/05/11 05:17:34;;;;;;;5.10;2.10;;;;;;;19.54;38.22;99894.95;109482;1253;76616;-64
2023/05/11 05:20:03;;;;;;;4.10;2.10;;;;;;;19.87;37.01;99898.28;109285;1253;66480;-62
2023/05/11 05:22:30;;;;;;;3.30;2.30;;;;;;;20.15;36.42;99898.50;109365;1253;73511;-68
2023/05/11 05:24:57;;;;;;;1.70;1.60;;;;;;;20.48;35.96;99899.77;109421;1254;62746;-65
2023/05/11 05:27:24;;;;;;;5.10;2.10;;;;;;;20.90;34.95;99899.29;109374;1253;61834;-64
2023/05/11 05:29:51;;;;;;;5.20;2.60;;;;;;;21.38;34.24;99902.38;109350;1253;77094;-63
2023/05/11 05:32:19;;;;;;;2.30;1.90;;;;;;;21.84;32.94;99895.90;109244;1253;66060;-65
2023/05/11 05:34:46;;;;;;;2.70;2.20;;;;;;;22.22;32.12;99899.55;109369;1254;74106;-63
2023/05/11 05:37:13;;;;;;;4.80;2.80;;;;;;;22.52;31.45;99899.70;109349;1253;60262;-61
2023/05/11 05:39:40;;;;;;;3.50;2.20;;;;;;;22.77;31.21;99896.70;109249;1256;61189;-63
2023/05/11 05:42:07;;;;;;;3.60;1.90;;;;;;;23.01;30.59;99897.89;109312;1253;76957;-63
2023/05/11 05:44:34;;;;;;;3.50;2.30;;;;;;;23.33;29.81;99900.02;109303;1253;69666;-64
2023/05/11 05:47:01;;;;;;;8.20;2.80;;;;;;;23.54;29.38;99899.92;109419;1253;73476;-62
2023/05/11 05:49:31;;;;;;;6.70;2.10;;;;;;;23.70;29.15;99896.37;109237;1253;61882;-61
2023/05/11 05:51:57;;;;;;;4.80;2.40;;;;;;;23.92;28.62;99896.73;109344;1252;61477;-61
2023/05/11 05:54:25;;;;;;;6.00;2.10;;;;;;;24.17;28.34;99898.14;109378;1253;75819;-64
2023/05/11 05:56:53;;;;;;;7.50;2.10;;;;;;;24.38;27.88;99893.08;109287;1253;67607;-65
2023/05/11 05:59:22;;;;;;;3.60;2.20;;;;;;;24.56;27.45;99897.95;109415;1253;74617;-68
2023/05/11 06:01:53;;;;;;;8.40;2.50;;;;;;;24.66;27.20;99898.35;109399;1253;61322;-73
2023/05/11 06:04:21;;;;;;;7.20;2.20;;;;;;;24.81;26.79;99897.64;109268;1253;61051;-68
2023/05/11 06:06:48;;;;;;;2.30;2.10;;;;;;;25.05;26.61;99899.13;109448;1251;76263;-69
2023/05/11 06:09:15;;;;;;;6.40;2.00;;;;;;;25.12;26.55;99899.41;109388;1251;69567;-65
2023/05/11 06:11:42;;;;;;;7.50;1.90;;;;;;;25.43;26.43;99899.81;109385;1251;74219;-69
2023/05/11 06:14:09;;;;;;;4.40;2.00;;;;;;;25.75;25.73;99904.56;109538;1251;61359;-70
2023/05/11 06:16:37;;;;;;;3.80;2.20;;;;;;;25.93;25.27;99899.16;109540;1251;59000;-66
2023/05/11 06:19:04;;;;;;;4.50;2.40;;;;;;;26.07;25.03;99899.43;109501;1251;75175;-67
2023/05/11 06:21:31;;;;;;;5.10;2.40;;;;;;;26.25;24.76;99901.17;109369;1251;69914;-66
2023/05/11 06:23:58;;;;;;;2.10;1.90;;;;;;;26.36;23.83;99900.42;109384;1251;73949;-66
2023/05/11 06:26:27;;;;;;;3.50;1.90;;;;;;;26.28;23.99;99905.13;109570;1252;62592;-66
2023/05/11 06:28:54;;;;;;;4.00;2.20;;;;;;;26.34;23.64;99902.33;109380;1253;62017;-68
2023/05/11 06:31:23;;;;;;;2.80;2.00;;;;;;;26.24;23.54;99907.70;109554;1251;76845;-68
2023/05/11 06:33:50;;;;;;;2.50;1.60;;;;;;;26.14;23.64;99908.39;109406;1254;67491;-67
2023/05/11 06:36:20;;;;;;;3.00;2.40;;;;;;;26.30;23.30;99905.30;109331;1253;75251;-66
2023/05/11 06:38:47;;;;;;;3.30;1.80;;;;;;;26.36;23.65;99902.39;109481;1251;60518;-69
2023/05/11 06:41:13;;;;;;;3.10;1.90;;;;;;;26.55;23.22;99900.27;109365;1252;61345;-69
2023/05/11 06:43:41;;;;;;;11.60;2.40;;;;;;;26.80;22.63;99907.04;109440;1251;75431;-68
2023/05/11 06:46:18;;;;;;;3.40;1.60;;;;;;;26.86;22.24;99902.54;109469;1251;68250;-68
2023/05/11 06:48:45;;;;;;;2.20;1.60;;;;;;;27.16;22.27;99902.70;109495;1251;72308;-68
2023/05/11 06:51:11;;;;;;;2.60;1.20;;;;;;;27.51;21.37;99904.26;109559;1253;62373;-70
2023/05/11 06:53:38;;;;;;;2.90;1.50;;;;;;;27.40;20.93;99909.34;109552;1251;59607;-69
2023/05/11 06:56:06;;;;;;;2.10;1.50;;;;;;;27.18;20.91;99907.24;109586;1254;76900;-70
2023/05/11 06:58:32;;;;;;;1.40;1.30;;;;;;;27.24;21.11;99911.30;109568;1251;68583;-70
2023/05/11 07:00:59;;;;;;;1.60;1.40;;;;;;;27.53;20.43;99913.49;109466;1251;73784;-68
2023/05/11 07:03:26;;;;;;;1.60;1.30;;;;;;;27.44;20.21;99910.23;109500;1251;60932;-69
2023/05/11 07:05:53;;;;;;;8.10;2.30;;;;;;;27.39;20.47;99910.10;109468;1253;59754;-71
2023/05/11 07:08:20;;;;;;;3.00;1.80;;;;;;;27.43;20.05;99917.40;109531;1252;76502;-71
2023/05/11 07:10:47;;;;;;;4.70;1.60;;;;;;;27.44;19.98;99908.86;109461;1252;70070;-70
2023/05/11 07:13:13;;;;;;;1.80;1.30;;;;;;;27.98;20.04;99906.65;109444;1252;75109;-70
2023/05/11 07:15:40;;;;;;;2.10;1.40;;;;;;;28.23;18.98;99906.38;109508;1253;61766;-68
2023/05/11 07:18:07;;;;;;;3.20;1.70;;;;;;;28.32;19.15;99909.71;109474;1252;61930;-69
2023/05/11 07:20:38;;;;;;;1.90;1.50;;;;;;;28.49;18.42;99911.10;109475;1252;76979;-70
2023/05/11 07:23:05;;;;;;;7.00;1.80;;;;;;;28.51;18.24;99908.30;109514;1252;70245;-68
2023/05/11 07:25:32;;;;;;;3.50;1.60;;;;;;;28.41;18.37;99915.39;109416;1254;74785;-69
2023/05/11 07:27:59;;;;;;;2.50;1.40;;;;;;;28.23;18.60;99909.41;109494;1252;61177;-70
2023/05/11 07:30:26;;;;;;;4.60;1.20;;;;;;;28.34;18.22;99908.73;109529;1252;61209;-70
2023/05/11 07:32:53;;;;;;;2.20;1.40;;;;;;;28.52;17.88;99899.16;109496;1253;75214;-69
2023/05/11 07:35:20;;;;;;;3.50;1.70;;;;;;;28.68;17.90;99896.25;109550;1253;68486;-67
2023/05/11 07:37:49;;;;;;;5.80;1.30;;;;;;;28.95;17.75;99895.28;109470;1252;71026;-70
2023/05/11 07:40:16;;;;;;;4.20;1.30;;;;;;;29.30;17.06;99900.38;109479;1254;59035;-70
2023/05/11 07:42:43;;;;;;;3.20;1.50;;;;;;;29.37;16.44;99898.48;109535;1253;61053;-70
2023/05/11 07:45:09;;;;;;;2.70;1.60;;;;;;;29.45;16.63;99899.20;109547;1252;76743;-69
2023/05/11 07:47:36;;;;;;;3.80;1.20;;;;;;;29.88;16.59;99900.73;109458;1253;66688;-68
2023/05/11 07:50:04;;;;;;;1.50;1.30;;;;;;;30.14;16.61;99899.37;109585;1252;74311;-69
2023/05/11 07:52:31;;;;;;;6.00;1.90;;;;;;;29.23;16.79;99904.10;109498;1252;62744;-69
2023/05/11 07:54:58;;;;;;;2.10;1.70;;;;;;;27.43;17.14;99907.52;109495;1252;61499;-69
2023/05/11 07:57:25;;;;;;;1.50;1.30;;;;;;;26.37;17.79;99913.54;109578;1253;74797;-69
2023/05/11 07:59:51;;;;;;;2.90;1.30;;;;;;;26.12;17.82;99916.86;109547;1251;69741;-69
2023/05/11 08:02:18;;;;;;;2.80;1.10;;;;;;;24.93;18.13;99913.17;109450;1252;75120;-69
2023/05/11 08:04:45;;;;;;;1.80;1.50;;;;;;;23.63;19.21;99915.16;109397;1252;62401;-69
2023/05/11 08:07:12;;;;;;;1.40;1.30;;;;;;;23.06;20.08;99918.35;109443;1252;62354;-69
2023/05/11 08:09:39;;;;;;;2.60;1.60;;;;;;;23.12;19.96;99921.78;109405;1252;75567;-69
2023/05/11 08:12:06;;;;;;;1.70;1.50;;;;;;;22.33;20.47;99922.54;109396;1253;68478;-68
2023/05/11 08:14:32;;;;;;;2.80;1.20;;;;;;;21.65;21.25;99923.52;109394;1253;72930;-69
2023/05/11 08:16:59;;;;;;;2.60;1.40;;;;;;;21.32;21.71;99918.49;109401;1253;59234;-69
2023/05/11 08:19:26;;;;;;;4.30;1.80;;;;;;;22.33;21.90;99918.05;109512;1253;60845;-69
2023/05/11 08:21:53;;;;;;;1.70;1.40;;;;;;;24.29;20.86;99908.69;109607;1253;76681;-69
2023/05/11 08:24:20;;;;;;;4.00;1.10;;;;;;;26.00;19.29;99904.70;109572;1253;69078;-69
2023/05/11 08:26:47;;;;;;;2.10;1.40;;;;;;;27.11;18.10;99904.41;109572;1253;74528;-70
2023/05/11 08:29:14;;;;;;;2.20;1.80;;;;;;;27.23;17.11;99900.93;109520;1253;59830;-69
2023/05/11 08:31:40;;;;;;;3.50;1.40;;;;;;;25.68;17.82;99908.14;109563;1252;60387;-68
2023/05/11 08:34:07;;;;;;;1.80;1.50;;;;;;;24.56;18.86;99913.63;109607;1254;76137;-70
2023/05/11 08:36:45;;;;;;;2.80;1.60;;;;;;;24.74;18.86;99907.56;109572;1252;69031;-68
2023/05/11 08:39:12;;;;;;;3.00;1.40;;;;;;;24.03;18.99;99904.63;109503;1254;73290;-69
2023/05/11 08:41:39;;;;;;;2.50;1.60;;;;;;;23.06;19.99;99909.30;109562;1253;61446;-69
2023/05/11 08:44:06;;;;;;;3.10;1.80;;;;;;;22.20;20.64;99917.06;109529;1252;62615;-68
2023/05/11 08:46:34;;;;;;;8.00;1.80;;;;;;;21.26;21.53;99916.15;109562;1253;74036;-67
2023/05/11 08:49:01;;;;;;;3.20;1.50;;;;;;;20.42;22.30;99911.34;109605;1253;68695;-69
2023/05/11 08:51:28;;;;;;;4.00;1.60;;;;;;;20.00;22.80;99910.13;109570;1253;73745;-68
2023/05/11 08:53:56;;;;;;;3.00;1.10;;;;;;;20.44;22.80;99909.20;109568;1252;62427;-69
2023/05/11 08:56:23;;;;;;;3.50;1.50;;;;;;;20.53;22.85;99907.20;109565;1253;61200;-68
2023/05/11 08:58:51;;;;;;;1.80;1.40;;;;;;;20.39;23.07;99915.25;109305;1253;75608;-69
2023/05/11 09:01:22;;;;;;;2.30;1.50;;;;;;;21.44;22.45;99913.89;109568;1253;68109;-68
2023/05/11 09:03:49;;;;;;;3.90;1.70;;;;;;;22.46;21.33;99911.11;109398;1253;74001;-68
2023/05/11 09:06:16;;;;;;;1.70;1.40;;;;;;;22.01;21.16;99913.23;109576;1254;62443;-68
2023/05/11 09:08:44;;;;;;;1.70;1.40;;;;;;;21.18;21.79;99911.46;109591;1252;61178;-70
2023/05/11 09:11:11;;;;;;;1.60;1.10;;;;;;;20.47;22.44;99915.79;109288;1253;75261;-68
2023/05/11 09:13:37;;;;;;;2.80;1.70;;;;;;;20.18;22.67;99910.27;109563;1253;68463;-69
2023/05/11 09:16:04;;;;;;;1.70;1.10;;;;;;;20.32;22.84;99913.36;109556;1254;74824;-68
2023/05/11 09:18:49;;;;;;;1.80;1.30;;;;;;;20.13;23.04;99917.17;109360;1254;60211;-68
2023/05/11 09:21:16;;;;;;;2.70;1.50;;;;;;;19.83;23.49;99911.64;109550;1253;60968;-68
2023/05/11 09:23:43;;;;;;;4.10;1.50;;;;;;;19.83;23.92;99905.96;109572;1253;75676;-69
2023/05/11 09:26:14;;;;;;;2.10;1.40;;;;;;;20.84;23.21;99908.83;109524;1253;69435;-68
2023/05/11 09:28:50;;;;;;;3.80;1.10;;;;;;;22.33;21.82;99892.13;109542;1252;74119;-68
2023/05/11 09:31:38;;;;;;;3.20;1.10;;;;;;;24.17;20.68;99889.73;109556;1254;62807;-68
2023/05/11 09:34:21;;;;;;;1.70;1.10;;;;;;;24.86;19.61;99883.13;109566;1252;60452;-69
2023/05/11 09:36:52;;;;;;;2.10;1.30;;;;;;;25.16;19.18;99885.90;109629;1252;77024;-68
2023/05/11 09:39:35;;;;;;;5.80;1.60;;;;;;;25.49;19.12;99888.82;109603;1253;70081;-69
2023/05/11 09:42:22;;;;;;;1.40;1.30;;;;;;;26.27;18.40;99881.34;109547;1253;73572;-68
2023/05/11 09:44:48;;;;;;;5.10;1.50;;;;;;;25.32;18.61;99879.41;109523;1254;60027;-68
2023/05/11 09:47:18;;;;;;;1.40;1.30;;;;;;;24.23;19.34;99876.96;109763;1254;61394;-68
2023/05/11 09:49:47;;;;;;;1.70;1.20;;;;;;;24.56;19.56;99879.02;109776;1254;76123;-70
2023/05/11 09:52:15;;;;;;;2.10;1.50;;;;;;;25.87;18.90;99874.98;109691;1252;67474;-68
2023/05/11 09:54:44;;;;;;;6.30;1.60;;;;;;;27.12;18.13;99863.59;109524;1257;75036;-71
2023/05/11 09:57:26;;;;;;;3.40;1.10;;;;;;;27.56;17.35;99861.41;109692;1254;60426;-68
2023/05/11 09:59:53;;;;;;;5.00;1.20;;;;;;;28.24;16.86;99857.40;109742;1251;61232;-68
2023/05/11 10:02:29;;;;;;;1.20;1.10;;;;;;;29.48;16.22;99845.29;109536;1254;76942;-68
2023/05/11 10:04:56;;;;;;;;;;;;;;;30.42;15.42;99851.07;109557;1251;70051;-68
2023/05/11 10:07:33;;;;;;;2.00;1.40;;;;;;;30.68;14.55;99854.41;109512;1257;72776;-70
2023/05/11 10:10:10;;;;;;;2.20;1.20;;;;;;;30.38;14.36;99855.63;109553;1251;61331;-68
2023/05/11 10:12:39;;;;;;;3.20;1.00;;;;;;;30.40;14.31;99854.01;109607;1251;60905;-69
2023/05/11 10:15:07;;;;;;;3.50;1.50;;;;;;;29.54;14.40;99853.29;109542;1252;74942;-68
2023/05/11 10:17:34;;;;;;;2.30;1.30;;;;;;;28.63;14.94;99846.44;109593;1252;69151;-69
2023/05/11 10:20:03;;;;;;;3.60;1.40;;;;;;;27.45;15.82;99868.25;109606;1251;71263;-68
2023/05/11 10:22:29;;;;;;;1.30;1.20;;;;;;;25.45;17.19;99877.05;109507;1253;61205;-69
2023/05/11 10:24:57;;;;;;;3.00;1.30;;;;;;;23.59;18.53;99870.65;109566;1253;62093;-70
2023/05/11 10:27:24;;;;;;;1.80;1.30;;;;;;;22.38;19.52;99874.67;109576;1253;75809;-69
2023/05/11 10:29:50;;;;;;;1.10;1.10;;;;;;;21.55;20.34;99870.08;109621;1256;69975;-68
2023/05/11 10:32:18;;;;;;;1.80;1.30;;;;;;;21.00;20.96;99864.85;109555;1252;73318;-68
2023/05/11 10:34:45;;;;;;;2.70;1.30;;;;;;;20.71;21.60;99862.95;109500;1251;62047;-69
2023/05/11 10:37:13;;;;;;;2.40;1.50;;;;;;;20.54;21.85;99854.86;109577;1251;61179;-68
2023/05/11 10:39:40;;;;;;;1.80;1.40;;;;;;;20.40;22.29;99853.59;109607;1251;73351;-69
2023/05/11 10:42:38;;;;;;;2.60;1.40;;;;;;;20.29;22.78;99849.42;109468;1254;69529;-69
2023/05/11 10:45:17;;;;;;;6.20;1.60;;;;;;;20.15;23.10;99850.24;109535;1257;74020;-68
2023/05/11 10:48:01;;;;;;;7.70;1.50;;;;;;;20.07;23.74;99851.08;109403;1252;59004;-68
2023/05/11 10:50:31;;;;;;;3.30;1.30;;;;;;;20.05;23.55;99852.14;109342;1254;62410;-68
2023/05/11 10:53:36;;;;;;;3.00;1.60;;;;;;;20.10;23.22;99849.39;109536;1251;75627;-68
2023/05/11 10:56:09;;;;;;;4.60;1.20;;;;;;;20.13;23.66;99853.59;109528;1251;69239;-69
2023/05/11 10:59:30;;;;;;;2.00;1.30;;;;;;;20.02;23.66;99860.52;109599;1251;73617;-68
2023/05/11 11:02:00;;;;;;;2.20;1.20;;;;;;;19.63;24.07;99850.80;109059;1259;59447;-69
2023/05/11 11:04:47;;;;;;;2.00;1.30;;;;;;;19.51;24.42;99857.94;109480;1251;61207;-69
2023/05/11 11:07:17;;;;;;;1.80;1.10;;;;;;;19.40;23.99;99864.52;109637;1251;73640;-69
2023/05/11 11:09:51;;;;;;;4.40;1.40;;;;;;;19.25;24.24;99861.79;109604;1251;70278;-69
2023/05/11 11:12:19;;;;;;;3.30;1.40;;;;;;;19.20;24.12;99853.31;109612;1251;75084;-68
2023/05/11 11:15:03;;;;;;;4.00;1.90;;;;;;;19.20;24.27;99855.05;109601;1251;62485;-69
2023/05/11 11:17:33;;;;;;;3.20;1.50;;;;;;;19.22;24.35;99855.16;109555;1258;61175;-69
2023/05/11 11:20:06;;;;;;;3.00;1.40;;;;;;;19.20;24.38;99851.32;109543;1254;75998;-68
2023/05/11 11:22:33;;;;;;;3.20;1.60;;;;;;;19.22;24.70;99847.95;109506;1251;67221;-67
2023/05/11 11:25:00;;;;;;;3.20;1.60;;;;;;;19.26;24.94;99847.43;109562;1251;73696;-68
2023/05/11 11:27:39;;;;;;;3.70;1.60;;;;;;;19.17;24.92;99851.42;109459;1254;62656;-67
2023/05/11 11:30:27;;;;;;;9.50;1.90;;;;;;;19.00;25.15;99852.80;109572;1251;60611;-69
2023/05/11 11:33:06;;;;;;;4.50;1.50;;;;;;;18.91;25.46;99852.55;109623;1251;76461;-70
2023/05/11 11:35:42;;;;;;;3.20;2.00;;;;;;;18.72;25.43;99855.59;109571;1251;67604;-67